Time;durP1;ratioP1;P1;durP2;ratioP2;P2;SDS_P1;SDS_P2;PMS_P1;PMS_P2;Temp;Humidity;BMP_temperature;BMP_pressure;BME280_temperature;BME280_humidity;BME280_pressure;Samples;Min_cycle;Max_cycle;Signal;HPM_P1;HPM_P2
2021/03/22 00:00:36;;;;;;;13.68;7.30;;;;;;;2.84;52.70;99638.20;1734000;81;21215;-58
2021/03/22 00:03:06;;;;;;;14.55;8.38;;;;;;;2.83;52.78;99637.00;1758121;81;21186;-59
2021/03/22 00:05:35;;;;;;;13.00;8.00;;;;;;;2.82;52.88;99642.63;1753296;79;21180;-59
2021/03/22 00:08:06;;;;;;;15.53;8.05;;;;;;;2.83;52.88;99633.92;1757905;81;21157;-58
2021/03/22 00:10:35;;;;;;;12.30;7.37;;;;;;;2.83;52.98;99637.00;1730091;81;21181;-58
2021/03/22 00:13:04;;;;;;;14.18;8.08;;;;;;;2.84;52.91;99635.61;1762080;81;21620;-58
2021/03/22 00:15:35;;;;;;;13.18;7.40;;;;;;;2.84;52.88;99631.71;1757729;79;21168;-59
2021/03/22 00:18:05;;;;;;;12.90;8.05;;;;;;;2.86;52.80;99622.50;1721223;82;21180;-59
2021/03/22 00:20:36;;;;;;;16.02;8.83;;;;;;;2.87;52.73;99620.28;1695901;82;21204;-58
2021/03/22 00:23:06;;;;;;;13.72;7.12;;;;;;;2.86;52.83;99614.70;1755246;79;21196;-58
2021/03/22 00:25:33;;;;;;;13.00;7.35;;;;;;;2.86;52.83;99615.56;1733358;81;21177;-58
2021/03/22 00:28:02;;;;;;;15.13;7.87;;;;;;;2.85;52.85;99613.05;1697874;82;21217;-59
2021/03/22 00:30:34;;;;;;;13.93;7.78;;;;;;;2.82;52.98;99605.44;1728520;81;21172;-59
2021/03/22 00:33:03;;;;;;;14.13;7.58;;;;;;;2.80;52.98;99613.31;1724088;79;21667;-58
2021/03/22 00:35:32;;;;;;;12.20;7.78;;;;;;;2.81;53.12;99618.90;1753296;80;21149;-59
2021/03/22 00:38:01;;;;;;;15.72;8.85;;;;;;;2.79;53.11;99612.94;1690309;84;21215;-59
2021/03/22 00:40:31;;;;;;;12.93;8.65;;;;;;;2.78;53.19;99610.81;1752077;80;21188;-58
2021/03/22 00:42:59;;;;;;;12.88;7.17;;;;;;;2.75;53.36;99609.69;1751331;79;21188;-59
2021/03/22 00:45:27;;;;;;;12.07;7.47;;;;;;;2.74;53.37;99611.08;1753567;79;21507;-59
2021/03/22 00:47:55;;;;;;;14.87;8.10;;;;;;;2.74;53.47;99611.08;1682917;83;21185;-59
2021/03/22 00:50:31;;;;;;;12.03;7.22;;;;;;;2.74;53.49;99608.04;1754439;80;21376;-59
2021/03/22 00:52:59;;;;;;;11.15;7.10;;;;;;;2.75;53.56;99608.86;1759401;79;21165;-59
2021/03/22 00:55:27;;;;;;;14.50;8.50;;;;;;;2.77;53.58;99608.30;1754156;80;21134;-58
2021/03/22 00:57:54;;;;;;;15.55;8.18;;;;;;;2.76;53.50;99601.45;1703109;83;21153;-58
2021/03/22 01:00:38;;;;;;;12.88;7.05;;;;;;;2.79;53.58;99604.70;1764361;80;21204;-58
2021/03/22 01:03:08;;;;;;;14.10;7.55;;;;;;;2.79;53.56;99596.91;1729674;80;22283;-59
2021/03/22 01:05:36;;;;;;;12.65;6.28;;;;;;;2.77;53.68;99589.67;1739158;80;21164;-58
2021/03/22 01:08:05;;;;;;;14.50;8.30;;;;;;;2.76;53.69;99594.48;1751464;80;21530;-58
2021/03/22 01:10:50;;;;;;;12.70;8.08;;;;;;;2.78;53.63;99589.20;1677422;84;21189;-58
2021/03/22 01:13:22;;;;;;;13.40;7.45;;;;;;;2.77;53.68;99591.41;1754947;80;21220;-59
2021/03/22 01:15:50;;;;;;;12.05;7.10;;;;;;;2.76;53.82;99586.69;1687994;82;21229;-58
2021/03/22 01:18:21;;;;;;;12.85;7.25;;;;;;;2.78;53.76;99587.91;1746833;79;21117;-59
2021/03/22 01:20:54;;;;;;;16.75;8.30;;;;;;;2.75;53.84;99585.48;1755828;79;21244;-58
2021/03/22 01:23:23;;;;;;;14.73;7.92;;;;;;;2.77;53.93;99589.67;1760123;80;21124;-58
2021/03/22 01:25:51;;;;;;;13.38;7.45;;;;;;;2.75;53.86;99588.91;1753202;79;21111;-58
2021/03/22 01:28:19;;;;;;;13.13;7.45;;;;;;;2.72;53.93;99585.66;1732162;80;21385;-58
2021/03/22 01:30:53;;;;;;;12.55;7.03;;;;;;;2.68;54.00;99587.61;1761864;79;21117;-58
2021/03/22 01:33:25;;;;;;;13.30;8.33;;;;;;;2.68;54.16;99592.81;1740638;80;21644;-58
2021/03/22 01:35:58;;;;;;;14.70;8.70;;;;;;;2.67;54.13;99593.72;1761111;79;21141;-58
2021/03/22 01:38:27;;;;;;;13.28;7.70;;;;;;;2.69;54.25;99584.55;1715691;80;21120;-59
2021/03/22 01:41:35;;;;;;;12.58;7.00;;;;;;;2.68;54.26;99583.72;1741956;80;22198;-58
2021/03/22 01:44:32;;;;;;;14.63;7.08;;;;;;;2.69;54.24;99582.80;1758660;79;21196;-59
2021/03/22 01:47:15;;;;;;;11.73;8.35;;;;;;;2.68;54.30;99585.48;1757498;79;21175;-58
2021/03/22 01:49:59;;;;;;;11.03;7.25;;;;;;;2.67;54.45;99595.02;1756916;80;21173;-59
2021/03/22 01:52:28;;;;;;;16.97;8.70;;;;;;;2.66;54.50;99593.84;1760712;79;21172;-58
2021/03/22 01:54:56;;;;;;;10.10;6.95;;;;;;;2.68;54.60;99595.88;1749417;80;22135;-59
2021/03/22 01:57:39;;;;;;;12.73;7.58;;;;;;;2.67;54.60;99583.33;1764113;80;21608;-58
2021/03/22 02:00:33;;;;;;;11.50;6.67;;;;;;;2.68;54.55;99577.22;1761358;79;21133;-60
2021/03/22 02:03:13;;;;;;;12.37;6.97;;;;;;;2.69;54.55;99575.45;1745850;80;21200;-58
2021/03/22 02:05:49;;;;;;;13.45;7.78;;;;;;;2.69;54.68;99576.75;1733502;80;21192;-58
2021/03/22 02:08:30;;;;;;;9.80;6.17;;;;;;;2.70;54.76;99584.45;1699609;83;21220;-58
2021/03/22 02:10:58;;;;;;;13.45;7.87;;;;;;;2.69;54.78;99584.09;1752192;80;21203;-58
2021/03/22 02:13:32;;;;;;;12.55;8.08;;;;;;;2.69;54.79;99579.34;1760079;80;21161;-58
2021/03/22 02:16:18;;;;;;;13.27;8.17;;;;;;;2.68;54.81;99578.52;1754658;80;21121;-59
2021/03/22 02:19:02;;;;;;;14.33;8.10;;;;;;;2.67;54.90;99578.14;1738113;80;21176;-58
2021/03/22 02:22:12;;;;;;;13.68;7.80;;;;;;;2.65;54.84;99568.31;1709163;82;21225;-58
2021/03/22 02:25:10;;;;;;;14.03;7.17;;;;;;;2.60;54.99;99571.65;1722982;80;21251;-59
2021/03/22 02:28:08;;;;;;;14.63;8.28;;;;;;;2.56;55.14;99571.48;1756057;80;21198;-58
2021/03/22 02:30:59;;;;;;;14.50;7.90;;;;;;;2.55;55.24;99572.39;1700094;82;21660;-58
2021/03/22 02:34:02;;;;;;;11.70;6.53;;;;;;;2.53;55.35;99574.25;1752377;80;21163;-58
2021/03/22 02:36:51;;;;;;;15.48;8.05;;;;;;;2.52;55.33;99574.72;1739509;80;21196;-58
2021/03/22 02:39:21;;;;;;;14.30;7.97;;;;;;;2.51;55.44;99563.12;1754739;80;21164;-59
2021/03/22 02:41:55;;;;;;;11.22;7.10;;;;;;;2.48;55.42;99557.64;1700445;82;21127;-58
2021/03/22 02:44:29;;;;;;;14.20;9.23;;;;;;;2.48;55.47;99551.62;1759393;79;21176;-58
2021/03/22 02:47:08;;;;;;;13.35;6.75;;;;;;;2.50;55.47;99553.18;1740263;80;21615;-58
2021/03/22 02:49:37;;;;;;;12.33;7.08;;;;;;;2.52;55.45;99560.88;1735953;80;21224;-59
2021/03/22 02:52:10;;;;;;;12.90;7.70;;;;;;;2.50;55.41;99551.88;1739150;80;21170;-58
2021/03/22 02:55:13;;;;;;;13.83;7.47;;;;;;;2.50;55.45;99548.46;1732669;80;21224;-58
2021/03/22 02:57:57;;;;;;;14.33;7.90;;;;;;;2.49;55.47;99549.38;1694575;82;21204;-59
2021/03/22 03:00:33;;;;;;;16.67;7.78;;;;;;;2.47;55.51;99548.64;1735830;80;21188;-58
2021/03/22 03:03:06;;;;;;;13.90;8.33;;;;;;;2.46;55.58;99550.41;1761660;80;22571;-59
2021/03/22 03:05:35;;;;;;;13.62;8.20;;;;;;;2.48;55.66;99549.02;1761592;80;21193;-59
2021/03/22 03:08:10;;;;;;;15.25;8.58;;;;;;;2.48;55.60;99548.55;1755531;79;21180;-58
2021/03/22 03:10:39;;;;;;;11.90;7.03;;;;;;;2.47;55.67;99546.89;1759400;80;21483;-59
2021/03/22 03:13:07;;;;;;;15.30;8.20;;;;;;;2.51;55.59;99548.38;1745633;80;21169;-57
2021/03/22 03:15:36;;;;;;;13.48;8.53;;;;;;;2.50;55.64;99548.46;1757960;80;21235;-57
2021/03/22 03:18:04;;;;;;;16.65;8.10;;;;;;;2.50;55.64;99545.86;1758536;80;21153;-59
2021/03/22 03:20:32;;;;;;;14.53;7.83;;;;;;;2.50;55.69;99554.48;1754295;80;21166;-59
2021/03/22 03:23:00;;;;;;;13.43;8.10;;;;;;;2.49;55.70;99550.67;1751856;80;21140;-58
2021/03/22 03:25:28;;;;;;;14.90;8.35;;;;;;;2.45;55.88;99551.33;1682319;84;21517;-58
2021/03/22 03:27:55;;;;;;;13.70;8.30;;;;;;;2.48;55.88;99548.55;1754069;80;22218;-57
2021/03/22 03:30:28;;;;;;;13.72;7.78;;;;;;;2.45;55.92;99545.30;1681823;83;21235;-57
2021/03/22 03:32:56;;;;;;;13.78;7.17;;;;;;;2.44;56.00;99550.11;1737099;80;21081;-59
2021/03/22 03:35:27;;;;;;;13.70;8.00;;;;;;;2.41;56.04;99541.59;1758624;79;21647;-58
2021/03/22 03:37:55;;;;;;;14.75;9.08;;;;;;;2.43;56.12;99539.38;1717418;82;21193;-59
2021/03/22 03:40:29;;;;;;;15.20;8.43;;;;;;;2.46;56.06;99544.39;1715789;82;21401;-59
2021/03/22 03:42:57;;;;;;;14.85;8.55;;;;;;;2.46;56.05;99541.32;1693824;82;21201;-58
2021/03/22 03:45:26;;;;;;;16.42;7.53;;;;;;;2.49;56.08;99542.88;1712544;82;21181;-58
2021/03/22 03:47:55;;;;;;;11.48;7.40;;;;;;;2.50;56.02;99539.38;1711325;82;21188;-59
2021/03/22 03:50:28;;;;;;;13.65;7.42;;;;;;;2.50;56.01;99536.77;1707919;82;21251;-58
2021/03/22 03:52:56;;;;;;;13.15;7.55;;;;;;;2.49;56.10;99529.90;1708101;82;21739;-59
2021/03/22 03:55:27;;;;;;;13.08;6.92;;;;;;;2.49;55.99;99530.75;1713506;83;21223;-59
2021/03/22 03:57:55;;;;;;;14.60;9.05;;;;;;;2.48;56.05;99524.35;1712560;82;21684;-59
2021/03/22 04:00:27;;;;;;;11.30;7.50;;;;;;;2.48;56.02;99526.95;1686474;81;21231;-59
2021/03/22 04:02:56;;;;;;;14.50;8.10;;;;;;;2.48;56.07;99521.75;1685734;83;21169;-58
2021/03/22 04:05:27;;;;;;;12.70;8.13;;;;;;;2.49;56.03;99520.81;1719398;82;21223;-60
2021/03/22 04:07:55;;;;;;;13.68;7.72;;;;;;;2.45;56.09;99519.34;1702760;83;21165;-58
2021/03/22 04:10:22;;;;;;;12.50;8.00;;;;;;;2.46;56.06;99520.55;1712355;82;21139;-59
2021/03/22 04:12:50;;;;;;;11.50;7.90;;;;;;;2.47;56.15;99518.33;1714393;82;22097;-60
2021/03/22 04:15:18;;;;;;;14.70;8.93;;;;;;;2.47;56.16;99510.98;1718443;82;21184;-61
2021/03/22 04:17:47;;;;;;;14.30;7.78;;;;;;;2.49;56.15;99516.91;1733291;82;21219;-64
2021/03/22 04:20:17;;;;;;;13.40;7.67;;;;;;;2.50;56.15;99514.23;1711452;82;21754;-61
2021/03/22 04:22:44;;;;;;;12.50;8.30;;;;;;;2.51;56.14;99508.59;1701994;82;21172;-61
2021/03/22 04:25:14;;;;;;;18.95;8.30;;;;;;;2.54;56.18;99508.38;1685348;83;21171;-59
2021/03/22 04:27:41;;;;;;;15.40;8.55;;;;;;;2.57;56.08;99505.60;1695041;82;21199;-60
2021/03/22 04:30:10;;;;;;;14.05;7.20;;;;;;;2.60;56.02;99510.61;1695512;82;22009;-60
2021/03/22 04:32:38;;;;;;;12.78;8.55;;;;;;;2.59;55.97;99512.39;1724739;82;21144;-62
2021/03/22 04:35:07;;;;;;;12.33;7.72;;;;;;;2.62;56.00;99514.42;1740537;80;21578;-60
2021/03/22 04:37:35;;;;;;;15.50;8.30;;;;;;;2.59;55.99;99513.69;1681398;82;21208;-59
2021/03/22 04:40:08;;;;;;;14.15;8.25;;;;;;;2.58;55.94;99513.77;1701830;82;21521;-59
2021/03/22 04:42:36;;;;;;;15.13;8.50;;;;;;;2.56;55.93;99511.74;1692906;83;21207;-60
2021/03/22 04:45:06;;;;;;;15.20;8.30;;;;;;;2.56;56.00;99501.35;1764229;79;21211;-61
2021/03/22 04:47:33;;;;;;;13.68;8.33;;;;;;;2.58;56.08;99508.58;1759028;80;21180;-60
2021/03/22 04:50:02;;;;;;;14.35;8.23;;;;;;;2.58;56.05;99511.17;1762048;79;21140;-60
2021/03/22 04:52:29;;;;;;;13.98;8.00;;;;;;;2.59;55.99;99513.69;1761488;80;21192;-59
2021/03/22 04:54:57;;;;;;;13.75;8.23;;;;;;;2.58;56.08;99504.69;1762582;80;21277;-60
2021/03/22 04:57:30;;;;;;;13.65;8.23;;;;;;;2.62;56.08;99506.63;1762073;79;21176;-60
2021/03/22 04:59:59;;;;;;;14.98;8.18;;;;;;;2.65;56.07;99505.14;1733589;80;21561;-59
2021/03/22 05:02:27;;;;;;;13.83;8.58;;;;;;;2.70;55.91;99512.19;1762297;79;21254;-59
2021/03/22 05:04:58;;;;;;;14.25;7.75;;;;;;;2.68;55.89;99514.05;1734991;80;21636;-62
2021/03/22 05:07:25;;;;;;;18.82;8.95;;;;;;;2.67;56.04;99506.70;1768373;79;21224;-60
2021/03/22 05:09:53;;;;;;;14.95;9.03;;;;;;;2.69;56.08;99511.81;1758445;79;21232;-60
2021/03/22 05:12:21;;;;;;;15.40;8.98;;;;;;;2.71;56.06;99509.98;1763605;80;21140;-60
2021/03/22 05:14:50;;;;;;;16.60;9.83;;;;;;;2.72;56.17;99508.59;1762509;79;21175;-59
2021/03/22 05:17:17;;;;;;;16.85;8.88;;;;;;;2.79;56.06;99509.02;1741935;80;21146;-60
2021/03/22 05:19:46;;;;;;;13.55;8.85;;;;;;;2.82;56.43;99516.62;1760229;80;21228;-60
2021/03/22 05:22:13;;;;;;;11.95;8.08;;;;;;;2.85;56.10;99514.31;1763997;80;21227;-60
2021/03/22 05:24:42;;;;;;;15.45;7.87;;;;;;;2.91;55.85;99515.24;1765245;79;21214;-61
2021/03/22 05:27:10;;;;;;;14.73;7.65;;;;;;;2.96;55.83;99515.79;1765788;80;21858;-61
2021/03/22 05:29:37;;;;;;;14.83;8.55;;;;;;;3.01;55.80;99524.58;1753918;80;21647;-60
2021/03/22 05:32:28;;;;;;;13.80;8.00;;;;;;;3.00;55.70;99528.95;1747989;80;21164;-59
2021/03/22 05:34:56;;;;;;;18.98;8.83;;;;;;;3.04;55.71;99533.48;1765970;79;21173;-61
2021/03/22 05:37:25;;;;;;;13.70;8.25;;;;;;;3.07;55.88;99535.42;1775363;80;21189;-58
2021/03/22 05:39:53;;;;;;;12.88;7.62;;;;;;;3.13;55.63;99529.85;1710761;82;21194;-60
2021/03/22 05:42:32;;;;;;;19.30;8.68;;;;;;;3.19;55.51;99528.62;1734941;80;21715;-61
2021/03/22 05:45:05;;;;;;;19.05;9.93;;;;;;;3.22;55.32;99527.61;1766777;79;21415;-59
2021/03/22 05:47:51;;;;;;;14.18;8.30;;;;;;;3.21;55.05;99525.92;1769109;79;21239;-60
2021/03/22 05:50:28;;;;;;;14.13;7.72;;;;;;;3.23;55.15;99524.91;1740755;79;21196;-60
2021/03/22 05:53:13;;;;;;;15.35;8.13;;;;;;;3.30;54.87;99529.26;1761240;79;21188;-62
2021/03/22 05:55:55;;;;;;;14.18;8.33;;;;;;;3.31;54.84;99525.70;1699519;81;25289;-60
2021/03/22 05:58:33;;;;;;;16.25;8.53;;;;;;;3.39;54.88;99518.73;1767495;79;21214;-61
2021/03/22 06:01:27;;;;;;;14.83;8.40;;;;;;;3.44;54.71;99518.80;1763422;80;21242;-59
2021/03/22 06:04:03;;;;;;;16.95;9.88;;;;;;;3.52;54.12;99524.34;1766659;79;21619;-59
2021/03/22 06:06:43;;;;;;;14.85;7.58;;;;;;;3.59;54.32;99523.47;1767871;80;21202;-59
2021/03/22 06:09:38;;;;;;;14.43;8.98;;;;;;;3.66;53.49;99524.73;1743024;80;21209;-58
2021/03/22 06:12:28;;;;;;;12.73;7.92;;;;;;;3.67;53.50;99513.41;1739148;79;21272;-59
2021/03/22 06:15:39;;;;;;;12.43;6.58;;;;;;;3.72;53.66;99525.64;1775662;79;21666;-60
2021/03/22 06:18:36;;;;;;;14.43;8.78;;;;;;;3.78;53.29;99528.30;1768434;79;21219;-58
2021/03/22 06:21:11;;;;;;;14.40;8.75;;;;;;;3.82;52.92;99524.58;1734160;79;22623;-59
2021/03/22 06:23:45;;;;;;;14.23;8.90;;;;;;;3.79;52.70;99522.17;1760199;79;21199;-59
2021/03/22 06:26:30;;;;;;;14.47;8.38;;;;;;;3.82;52.67;99532.39;1770584;79;23176;-59
2021/03/22 06:29:01;;;;;;;14.73;7.75;;;;;;;3.87;52.67;99526.89;1767213;79;21199;-59
2021/03/22 06:31:28;;;;;;;15.53;8.80;;;;;;;3.92;52.40;99530.02;1743757;80;21658;-59
2021/03/22 06:34:04;;;;;;;14.03;7.62;;;;;;;3.96;52.73;99532.77;1755133;79;21232;-59
2021/03/22 06:36:33;;;;;;;12.73;7.80;;;;;;;4.05;52.57;99527.42;1728726;82;21222;-59
2021/03/22 06:39:06;;;;;;;12.60;7.87;;;;;;;4.15;52.32;99528.95;1755007;79;21219;-59
2021/03/22 06:41:47;;;;;;;15.25;8.15;;;;;;;4.37;51.71;99526.58;1694247;82;21608;-58
2021/03/22 06:44:35;;;;;;;13.10;7.42;;;;;;;4.37;51.71;99526.58;1761208;79;21192;-58
2021/03/22 06:47:24;;;;;;;13.00;7.85;;;;;;;4.43;50.97;99529.22;1743553;79;21223;-59
2021/03/22 06:49:56;;;;;;;14.40;7.62;;;;;;;4.46;50.73;99522.03;1720913;81;21198;-59
2021/03/22 06:52:25;;;;;;;15.65;8.78;;;;;;;4.56;50.69;99528.75;1756696;79;22782;-65
2021/03/22 06:54:56;;;;;;;14.23;7.67;;;;;;;4.62;49.70;99527.03;1761296;79;21232;-62
2021/03/22 06:57:28;;;;;;;13.45;7.17;;;;;;;4.63;49.53;99523.95;1719886;82;21193;-61
2021/03/22 07:00:16;;;;;;;12.35;7.37;;;;;;;4.63;49.79;99525.25;1701377;82;21180;-63
2021/03/22 07:02:54;;;;;;;13.05;7.08;;;;;;;4.68;49.67;99534.06;1727217;81;21240;-60
2021/03/22 07:05:28;;;;;;;12.88;6.35;;;;;;;4.73;49.54;99543.22;1769066;79;21295;-68
2021/03/22 07:08:09;;;;;;;13.55;7.90;;;;;;;4.73;49.54;99543.22;1755122;79;21750;-68
2021/03/22 07:10:47;;;;;;;12.63;7.37;;;;;;;4.73;49.44;99542.39;1731550;81;21240;-65
2021/03/22 07:13:23;;;;;;;12.00;6.85;;;;;;;4.66;49.65;99547.20;1749110;79;21251;-67
2021/03/22 07:15:52;;;;;;;;;;;;;;;4.55;49.98;99552.30;1745757;80;21228;-64
2021/03/22 07:18:31;;;;;;;13.38;7.33;;;;;;;4.48;50.39;99549.76;1762134;79;20935;-65
2021/03/22 07:21:04;;;;;;;13.80;6.72;;;;;;;4.40;50.81;99554.17;1763679;79;21268;-69
2021/03/22 07:23:46;;;;;;;12.50;7.12;;;;;;;4.42;51.07;99559.66;1752272;79;21203;-67
2021/03/22 07:26:22;;;;;;;11.53;6.90;;;;;;;4.46;51.06;99533.75;1762660;79;21223;-66
2021/03/22 07:29:02;;;;;;;11.48;6.50;;;;;;;4.52;51.15;99542.91;1759110;79;21642;-58
2021/03/22 07:31:53;;;;;;;13.83;6.70;;;;;;;4.52;51.15;99542.91;1762938;79;21265;-66
2021/03/22 07:34:52;;;;;;;11.55;6.60;;;;;;;4.62;51.66;99545.72;1697814;82;21233;-63
2021/03/22 07:50:50;;;;;;;12.63;7.75;;;;;;;6.20;49.02;99536.16;1897220;73;22715;-66
2021/03/22 07:53:31;;;;;;;10.75;6.20;;;;;;;6.32;48.62;99540.92;1868800;75;21038;-66
2021/03/22 07:56:30;;;;;;;13.08;7.55;;;;;;;6.18;49.02;99528.91;1793616;77;22731;-70
2021/03/22 07:59:31;;;;;;;12.63;6.92;;;;;;;6.03;49.46;99539.21;1757587;80;22226;-68
2021/03/22 08:02:28;;;;;;;15.43;6.70;;;;;;;5.86;49.90;99529.98;1743596;79;21219;-68
2021/03/22 08:05:23;;;;;;;9.60;5.70;;;;;;;5.79;50.78;99527.00;1768102;78;21193;-66
2021/03/22 08:07:56;;;;;;;12.68;5.90;;;;;;;5.76;50.67;99526.73;1744849;80;21180;-71
2021/03/22 08:10:59;;;;;;;10.58;5.80;;;;;;;5.75;50.74;99545.16;1748880;80;21179;-71
2021/03/22 08:13:55;;;;;;;10.55;5.62;;;;;;;5.71;49.98;99544.52;1749301;80;21182;-67
2021/03/22 08:16:52;;;;;;;11.90;5.93;;;;;;;5.56;50.52;99536.05;1711171;81;21465;-67
2021/03/22 08:19:36;;;;;;;11.40;6.10;;;;;;;5.48;51.12;99534.92;1697326;82;21696;-71
2021/03/22 08:22:21;;;;;;;11.00;5.53;;;;;;;5.46;51.05;99536.81;1698798;82;22220;-68
2021/03/22 08:24:59;;;;;;;9.40;5.47;;;;;;;5.46;51.67;99522.47;1631364;82;21216;-69
2021/03/22 08:27:31;;;;;;;10.90;6.30;;;;;;;5.49;51.33;99556.17;1698677;82;21175;-68
2021/03/22 08:30:31;;;;;;;12.58;6.37;;;;;;;5.49;51.40;99534.81;1671651;84;21219;-65
2021/03/22 08:33:41;;;;;;;12.65;7.15;;;;;;;5.52;51.66;99529.86;1695625;82;21202;-68
2021/03/22 08:36:56;;;;;;;11.80;6.33;;;;;;;5.49;51.75;99545.73;1662504;82;21165;-68
2021/03/22 08:39:34;;;;;;;9.23;5.12;;;;;;;5.44;51.72;99534.80;1670252;84;21678;-67
2021/03/22 08:42:18;;;;;;;10.45;5.25;;;;;;;5.42;52.29;99535.39;1666113;83;21214;-66
2021/03/22 08:45:11;;;;;;;10.45;5.85;;;;;;;5.40;52.71;99529.80;1699003;82;21269;-65
2021/03/22 08:47:51;;;;;;;11.00;5.95;;;;;;;5.40;52.86;99528.48;1693488;82;21701;-68
2021/03/22 08:50:25;;;;;;;12.15;5.17;;;;;;;5.51;53.08;99540.75;1696004;82;21561;-66
2021/03/22 08:53:05;;;;;;;10.13;5.97;;;;;;;5.53;53.39;99538.03;1693830;82;21626;-67
2021/03/22 08:59:08;;;;;;;8.03;5.00;;;;;;;5.52;53.42;99550.25;1869479;75;23296;-69
2021/03/22 09:01:39;;;;;;;9.20;5.42;;;;;;;5.44;53.67;99536.09;1774542;78;21258;-59
2021/03/22 09:04:23;;;;;;;13.65;6.67;;;;;;;5.43;54.43;99539.64;1773741;80;21381;-60
2021/03/22 09:07:12;;;;;;;7.42;4.42;;;;;;;5.48;54.35;99540.14;1752693;80;21474;-59
2021/03/22 09:09:43;;;;;;;8.55;4.80;;;;;;;5.49;53.36;99547.04;1774080;80;21203;-59
2021/03/22 09:12:44;;;;;;;10.25;5.10;;;;;;;5.49;53.36;99547.04;1744140;80;21199;-56
2021/03/22 09:15:31;;;;;;;9.63;5.37;;;;;;;5.47;53.72;99548.45;1769477;80;21198;-59
2021/03/22 09:18:11;;;;;;;9.95;5.75;;;;;;;5.43;53.93;99556.15;1775717;79;21207;-59
2021/03/22 09:20:51;;;;;;;11.05;6.35;;;;;;;5.35;53.68;99546.25;1736216;81;21133;-58
2021/03/22 09:23:38;;;;;;;9.25;5.37;;;;;;;5.25;53.54;99555.68;1717500;81;21211;-58
2021/03/22 09:26:08;;;;;;;10.48;6.25;;;;;;;5.25;53.54;99555.68;1741244;81;21139;-58
2021/03/22 09:28:43;;;;;;;10.25;5.08;;;;;;;5.19;54.17;99553.50;1713958;81;21149;-59
2021/03/22 09:31:16;;;;;;;12.93;6.17;;;;;;;5.10;54.02;99557.59;1730143;81;23067;-58
2021/03/22 09:34:00;;;;;;;11.78;5.75;;;;;;;4.99;54.93;99558.36;1735988;80;21713;-58
2021/03/22 09:36:45;;;;;;;9.40;5.95;;;;;;;4.95;55.12;99556.89;1736790;81;21195;-59
2021/03/22 09:39:21;;;;;;;13.05;7.72;;;;;;;4.90;55.24;99555.55;1738444;80;21467;-59
2021/03/22 09:42:14;;;;;;;10.60;6.72;;;;;;;4.88;55.44;99562.66;1738147;81;21274;-59
2021/03/22 09:45:00;;;;;;;13.08;6.03;;;;;;;4.87;54.95;99559.20;1744719;81;21220;-58
2021/03/22 09:47:32;;;;;;;12.73;7.97;;;;;;;4.85;55.00;99558.48;1720312;81;21580;-58
2021/03/22 09:50:08;;;;;;;14.30;9.05;;;;;;;4.87;55.09;99561.80;1712265;81;21143;-59
2021/03/22 09:52:40;;;;;;;13.20;6.90;;;;;;;4.92;55.23;99555.80;1711142;81;21183;-59
2021/03/22 09:55:33;;;;;;;16.40;6.92;;;;;;;5.00;54.80;99550.88;1866115;74;22174;-59
2021/03/22 09:58:45;;;;;;;13.40;7.53;;;;;;;5.04;54.56;99556.72;1835733;77;21106;-58
2021/03/22 10:01:39;;;;;;;11.10;6.53;;;;;;;5.06;54.37;99559.21;1844551;77;23087;-57
2021/03/22 10:04:19;;;;;;;11.57;7.28;;;;;;;5.04;54.41;99560.63;1754089;80;21238;-58
2021/03/22 10:07:27;;;;;;;13.25;7.17;;;;;;;4.96;54.77;99559.02;1771136;78;21207;-57
2021/03/22 10:10:01;;;;;;;13.38;8.38;;;;;;;4.94;55.03;99565.67;1776064;79;21166;-57
2021/03/22 10:12:41;;;;;;;12.93;8.07;;;;;;;4.96;55.18;99570.30;1783400;78;21156;-56
2021/03/22 10:15:35;;;;;;;12.35;7.42;;;;;;;4.95;55.38;99575.63;1759413;80;21294;-56
2021/03/22 10:18:33;;;;;;;14.87;8.48;;;;;;;4.80;56.03;99569.22;1776452;78;21714;-57
2021/03/22 10:21:16;;;;;;;11.78;7.37;;;;;;;4.82;55.79;99563.90;1758862;78;22620;-58
2021/03/22 10:24:23;;;;;;;10.63;6.80;;;;;;;4.78;55.27;99568.97;1711350;81;21207;-58
2021/03/22 10:26:55;;;;;;;12.80;8.13;;;;;;;4.75;55.37;99570.00;1729386;80;22547;-57
2021/03/22 10:29:31;;;;;;;13.15;8.58;;;;;;;4.83;55.05;99562.97;1706929;82;21219;-58
2021/03/22 10:32:11;;;;;;;13.08;7.22;;;;;;;4.83;55.05;99562.97;1702137;82;21667;-55
2021/03/22 10:34:52;;;;;;;10.48;6.78;;;;;;;4.89;55.05;99577.34;1731858;82;21168;-56
2021/03/22 10:37:26;;;;;;;12.98;7.65;;;;;;;4.78;54.70;99573.70;1732210;80;21790;-57
2021/03/22 10:40:02;;;;;;;14.40;8.78;;;;;;;4.78;54.70;99573.70;1706132;82;21390;-57
2021/03/22 10:42:37;;;;;;;14.95;8.70;;;;;;;4.75;55.11;99570.00;1731460;82;21169;-56
2021/03/22 10:45:32;;;;;;;13.15;7.53;;;;;;;4.79;55.14;99568.02;1731199;82;21208;-56
2021/03/22 10:48:00;;;;;;;14.25;7.30;;;;;;;4.78;55.07;99565.06;1729068;82;21153;-56
2021/03/22 10:50:32;;;;;;;13.85;6.92;;;;;;;4.72;54.67;99564.17;1729286;82;21610;-57
2021/03/22 10:53:14;;;;;;;23.57;8.68;;;;;;;4.69;55.07;99559.16;1730996;81;21386;-57
2021/03/22 10:55:45;;;;;;;12.43;7.40;;;;;;;4.73;55.16;99558.86;1737854;82;21219;-57
2021/03/22 10:58:27;;;;;;;13.98;8.35;;;;;;;4.97;55.06;99545.05;1730618;82;21249;-56
2021/03/22 11:01:07;;;;;;;13.45;8.78;;;;;;;4.97;55.06;99545.05;1728050;82;21289;-57
2021/03/22 11:03:36;;;;;;;15.70;8.80;;;;;;;5.17;54.51;99550.17;1698131;82;21227;-57
2021/03/22 11:06:13;;;;;;;12.00;7.62;;;;;;;5.33;54.21;99547.29;1726593;82;21232;-58
2021/03/22 11:08:43;;;;;;;15.05;7.97;;;;;;;5.45;53.99;99541.69;1724247;82;21219;-58
2021/03/22 11:11:14;;;;;;;14.78;8.45;;;;;;;5.54;53.09;99543.63;1731553;81;21169;-58
2021/03/22 11:13:45;;;;;;;12.50;7.70;;;;;;;5.54;52.52;99542.31;1729152;82;21224;-56
2021/03/22 11:16:19;;;;;;;15.05;8.13;;;;;;;5.49;52.39;99549.64;1728871;81;21235;-57
2021/03/22 11:18:47;;;;;;;12.10;6.65;;;;;;;5.49;52.39;99549.64;1730547;81;21125;-56
2021/03/22 11:21:22;;;;;;;14.43;7.78;;;;;;;5.41;52.80;99544.97;1716492;81;21212;-57
2021/03/22 11:23:53;;;;;;;11.57;8.50;;;;;;;5.28;53.08;99545.48;1715292;82;21507;-59
2021/03/22 11:26:29;;;;;;;14.85;8.05;;;;;;;5.13;53.16;99542.22;1695178;82;21239;-58
2021/03/22 11:29:21;;;;;;;13.38;8.18;;;;;;;5.12;53.89;99548.36;1699619;82;21141;-57
2021/03/22 11:31:59;;;;;;;13.83;7.85;;;;;;;5.12;53.89;99548.36;1691634;81;21463;-58
2021/03/22 11:34:42;;;;;;;12.15;7.72;;;;;;;5.13;53.16;99551.34;1828678;75;22763;-56
2021/03/22 11:37:21;;;;;;;11.88;7.25;;;;;;;5.03;53.62;99558.98;1815140;77;21203;-55
2021/03/22 11:40:18;;;;;;;14.45;8.85;;;;;;;4.93;53.90;99554.88;1747564;80;21230;-57
2021/03/22 11:43:01;;;;;;;12.07;7.15;;;;;;;4.88;53.68;99562.18;1765430;80;21090;-56
2021/03/22 11:45:44;;;;;;;15.85;9.30;;;;;;;4.86;54.50;99557.55;1713556;81;21156;-57
2021/03/22 11:48:28;;;;;;;13.68;9.23;;;;;;;4.84;55.01;99558.10;1740112;80;21688;-56
2021/03/22 11:51:03;;;;;;;11.88;6.90;;;;;;;4.82;55.49;99562.59;1742171;81;21797;-55
2021/03/22 11:53:31;;;;;;;15.13;9.63;;;;;;;4.75;55.57;99554.84;1713962;81;21219;-55
2021/03/22 11:56:23;;;;;;;16.57;9.55;;;;;;;4.75;55.57;99554.84;1739227;80;22220;-56
2021/03/22 11:58:50;;;;;;;14.95;9.25;;;;;;;4.80;56.45;99564.48;1746557;81;21246;-56
2021/03/22 12:01:27;;;;;;;13.53;8.45;;;;;;;4.80;56.45;99564.48;1766870;80;21220;-57
2021/03/22 12:04:11;;;;;;;15.28;9.20;;;;;;;4.79;56.33;99569.31;1763338;80;21217;-60
2021/03/22 12:07:06;;;;;;;16.50;9.20;;;;;;;4.73;56.42;99572.37;1768248;80;21648;-57
2021/03/22 12:09:34;;;;;;;16.35;9.38;;;;;;;4.69;56.99;99565.23;1769560;80;21205;-57
2021/03/22 12:12:14;;;;;;;15.48;8.90;;;;;;;4.64;57.25;99568.14;1752747;80;21199;-58
2021/03/22 12:14:42;;;;;;;14.33;8.25;;;;;;;4.65;57.51;99572.88;1729495;80;21264;-56
2021/03/22 12:17:25;;;;;;;14.47;8.88;;;;;;;4.71;57.38;99573.77;1773455;80;21236;-55
2021/03/22 12:19:54;;;;;;;16.48;9.63;;;;;;;4.75;57.03;99567.40;1750332;80;21153;-56
2021/03/22 12:22:22;;;;;;;16.07;10.23;;;;;;;4.73;56.54;99579.70;1768755;80;21189;-56
2021/03/22 12:24:49;;;;;;;18.07;9.63;;;;;;;4.73;56.54;99579.70;1737363;81;21217;-55
2021/03/22 12:27:18;;;;;;;18.32;9.85;;;;;;;4.70;56.70;99573.39;1768440;80;21182;-56
2021/03/22 12:29:47;;;;;;;14.58;10.25;;;;;;;4.69;56.73;99574.80;1723294;81;21639;-56
2021/03/22 12:32:23;;;;;;;16.17;10.35;;;;;;;4.64;56.67;99575.14;1741748;80;21181;-56
2021/03/22 12:34:52;;;;;;;18.12;11.97;;;;;;;4.58;57.05;99579.45;1732923;81;21219;-56
2021/03/22 12:37:31;;;;;;;17.30;10.72;;;;;;;4.58;57.15;99580.28;1729699;81;21211;-56